createdAt,value
2023-01-30T00:01:12.836Z,32.20
2023-01-30T00:03:40.128Z,33.67
2023-01-30T00:06:07.582Z,30.67
2023-01-30T00:08:34.878Z,27.17
2023-01-30T00:11:11.589Z,28.83
2023-01-30T00:13:40.381Z,25.70
2023-01-30T00:16:10.076Z,27.40
2023-01-30T00:18:39.029Z,25.53
2023-01-30T00:21:08.618Z,26.20
2023-01-30T00:23:37.173Z,26.97
2023-01-30T00:26:06.062Z,26.80
2023-01-30T00:28:33.464Z,26.73
2023-01-30T00:31:00.841Z,26.53
2023-01-30T00:33:28.394Z,30.60
2023-01-30T00:35:57.517Z,30.47
2023-01-30T00:38:25.888Z,29.40
2023-01-30T00:40:53.163Z,30.27
2023-01-30T00:43:40.731Z,27.57
2023-01-30T00:46:39.568Z,29.10
2023-01-30T00:49:06.825Z,28.23
2023-01-30T00:51:35.276Z,26.40
2023-01-30T00:54:02.523Z,27.20
2023-01-30T00:56:31.715Z,29.47
2023-01-30T00:58:58.996Z,29.97
2023-01-30T01:01:26.332Z,28.73
2023-01-30T01:03:53.679Z,30.37
2023-01-30T01:06:21.074Z,29.97
2023-01-30T01:08:48.414Z,29.73
2023-01-30T01:11:24.626Z,26.20
2023-01-30T01:13:54.342Z,26.93
2023-01-30T01:16:22.212Z,30.50
2023-01-30T01:18:49.506Z,30.97
2023-01-30T01:21:19.359Z,27.70
2023-01-30T01:24:05.847Z,27.70
2023-01-30T01:26:34.261Z,28.27
2023-01-30T01:29:01.401Z,27.23
2023-01-30T01:31:30.386Z,26.37
2023-01-30T01:33:57.834Z,29.30
2023-01-30T01:36:52.129Z,26.83
2023-01-30T01:39:13.694Z,29.07
2023-01-30T01:41:40.920Z,30.33
2023-01-30T01:44:11.377Z,29.50
2023-01-30T01:46:39.571Z,28.80
2023-01-30T01:49:17.428Z,28.87
2023-01-30T01:51:51.710Z,28.73
2023-01-30T01:54:39.040Z,30.33
2023-01-30T01:57:16.017Z,30.50
2023-01-30T01:59:53.159Z,32.60
2023-01-30T02:02:20.991Z,28.50
2023-01-30T02:05:03.219Z,30.80
2023-01-30T02:07:58.544Z,32.67
2023-01-30T02:10:49.128Z,29.40
2023-01-30T02:13:17.294Z,29.03
2023-01-30T02:15:44.455Z,25.97
2023-01-30T02:18:13.626Z,30.77
2023-01-30T02:20:55.943Z,30.87
2023-01-30T02:23:38.419Z,28.67
2023-01-30T02:26:29.919Z,27.93
2023-01-30T02:29:03.467Z,33.03
2023-01-30T02:31:43.057Z,30.10
2023-01-30T02:34:40.310Z,31.80
2023-01-30T02:37:25.497Z,25.13
2023-01-30T02:40:19.841Z,27.67
2023-01-30T02:42:57.226Z,30.57
2023-01-30T02:45:26.615Z,30.90
2023-01-30T02:48:04.017Z,29.17
2023-01-30T02:50:42.647Z,27.27
2023-01-30T02:53:11.090Z,31.37
2023-01-30T02:55:42.072Z,30.67
2023-01-30T02:58:10.929Z,31.10
2023-01-30T03:01:08.071Z,36.30
2023-01-30T03:03:58.757Z,38.57
2023-01-30T03:07:03.278Z,36.07
2023-01-30T03:09:46.027Z,30.83
2023-01-30T03:12:23.858Z,32.40
2023-01-30T03:15:17.484Z,28.93
2023-01-30T03:17:48.243Z,37.13
2023-01-30T03:20:20.401Z,32.63
2023-01-30T03:22:47.895Z,32.53
2023-01-30T03:25:20.557Z,31.30
2023-01-30T03:27:52.096Z,37.73
2023-01-30T03:30:20.445Z,32.77
2023-01-30T03:32:49.328Z,34.57
2023-01-30T03:35:18.322Z,32.00
2023-01-30T03:37:46.631Z,33.00
2023-01-30T03:40:16.376Z,30.70
2023-01-30T03:42:46.454Z,36.77
2023-01-30T03:45:14.789Z,31.17
2023-01-30T03:47:48.075Z,30.73
2023-01-30T03:50:16.986Z,31.20
2023-01-30T03:52:46.156Z,30.07
2023-01-30T03:55:17.541Z,33.07
2023-01-30T03:57:45.134Z,30.03
2023-01-30T04:00:12.896Z,28.10
2023-01-30T04:02:50.370Z,28.30
2023-01-30T04:05:19.279Z,27.30
2023-01-30T04:07:58.042Z,29.67
2023-01-30T04:10:26.427Z,28.93
2023-01-30T04:12:53.866Z,26.77
2023-01-30T04:15:22.570Z,29.27
2023-01-30T04:18:08.667Z,27.33
2023-01-30T04:21:05.884Z,27.43
2023-01-30T04:23:38.029Z,25.70
2023-01-30T04:26:07.268Z,27.80
2023-01-30T04:28:38.798Z,26.20
2023-01-30T04:31:07.255Z,28.63
2023-01-30T04:33:57.409Z,28.73
2023-01-30T04:36:24.932Z,27.13
2023-01-30T04:38:52.222Z,25.00
2023-01-30T04:41:21.620Z,24.27
2023-01-30T04:43:49.717Z,29.60
2023-01-30T04:46:35.769Z,22.47
2023-01-30T04:49:03.095Z,25.50
2023-01-30T04:51:30.589Z,26.33
2023-01-30T04:53:59.496Z,27.13
2023-01-30T04:56:27.318Z,26.77
2023-01-30T04:58:55.557Z,29.83
2023-01-30T05:01:30.252Z,25.20
2023-01-30T05:03:57.761Z,25.87
2023-01-30T05:06:24.939Z,26.37
2023-01-30T05:08:54.756Z,27.73
2023-01-30T05:11:23.818Z,27.77
2023-01-30T05:13:52.269Z,31.13
2023-01-30T05:16:21.377Z,28.53
2023-01-30T05:18:49.079Z,28.77
2023-01-30T05:21:28.907Z,25.23
2023-01-30T05:23:57.804Z,28.83
2023-01-30T05:26:25.194Z,26.13
2023-01-30T05:28:57.875Z,27.17
2023-01-30T05:31:25.422Z,28.57
2023-01-30T05:33:53.201Z,28.63
2023-01-30T05:36:22.775Z,27.47
2023-01-30T05:38:50.174Z,27.43
2023-01-30T05:41:18.442Z,28.13
2023-01-30T05:43:49.770Z,31.03
2023-01-30T05:46:17.631Z,29.50
2023-01-30T05:48:44.957Z,29.80
2023-01-30T05:51:21.210Z,28.33
2023-01-30T05:53:49.358Z,27.23
2023-01-30T05:56:17.327Z,26.90
2023-01-30T05:58:49.774Z,27.80
2023-01-30T06:01:18.610Z,30.23
2023-01-30T06:03:46.879Z,27.33
2023-01-30T06:06:14.317Z,28.97
2023-01-30T06:08:42.008Z,25.57
2023-01-30T06:11:12.520Z,28.37
2023-01-30T06:13:40.069Z,24.70
2023-01-30T06:16:08.654Z,27.93
2023-01-30T06:18:36.425Z,30.13
2023-01-30T06:21:04.374Z,29.87
2023-01-30T06:23:33.109Z,28.10
2023-01-30T06:26:02.137Z,28.90
2023-01-30T06:28:31.254Z,31.17
2023-01-30T06:30:58.892Z,27.87
2023-01-30T06:33:26.331Z,29.37
2023-01-30T06:35:54.026Z,27.07
2023-01-30T06:38:21.408Z,28.07
2023-01-30T06:40:50.455Z,29.90
2023-01-30T06:43:18.203Z,30.00
2023-01-30T06:45:45.406Z,28.90
2023-01-30T06:48:13.148Z,30.33
2023-01-30T06:50:40.430Z,25.83
2023-01-30T06:53:08.784Z,29.10
2023-01-30T06:55:36.786Z,26.67
2023-01-30T06:58:09.824Z,23.40
2023-01-30T07:00:40.439Z,23.10
2023-01-30T07:03:15.459Z,27.50
2023-01-30T07:05:44.874Z,25.77
2023-01-30T07:08:13.359Z,25.50
2023-01-30T07:10:41.919Z,28.43
2023-01-30T07:13:09.706Z,27.73
2023-01-30T07:15:37.005Z,31.83
2023-01-30T07:18:04.460Z,28.77
2023-01-30T07:20:32.041Z,26.13
2023-01-30T07:22:59.555Z,27.67
2023-01-30T07:25:28.330Z,24.17
2023-01-30T07:27:58.496Z,27.30
2023-01-30T07:30:27.786Z,29.23
2023-01-30T07:32:58.006Z,27.83
2023-01-30T07:35:27.291Z,27.97
2023-01-30T07:37:55.927Z,24.47
2023-01-30T07:40:24.304Z,23.33
2023-01-30T07:42:58.288Z,25.30
2023-01-30T07:45:31.602Z,23.70
2023-01-30T07:47:58.953Z,24.30
2023-01-30T07:50:26.371Z,25.47
2023-01-30T07:52:53.565Z,26.10
2023-01-30T07:55:20.893Z,27.13
2023-01-30T07:57:48.322Z,21.73
2023-01-30T08:00:16.815Z,24.40
2023-01-30T08:02:44.303Z,25.03
2023-01-30T08:05:11.548Z,25.97
2023-01-30T08:07:39.612Z,23.60
2023-01-30T08:10:09.328Z,23.30
2023-01-30T08:12:38.311Z,25.47
2023-01-30T08:15:06.276Z,24.43
2023-01-30T08:17:34.554Z,23.93
2023-01-30T08:20:01.949Z,24.37
2023-01-30T08:22:29.524Z,23.73
2023-01-30T08:24:56.694Z,22.00
2023-01-30T08:27:23.990Z,27.00
2023-01-30T08:29:51.230Z,25.57
2023-01-30T08:32:18.526Z,23.17
2023-01-30T08:34:45.635Z,22.80
2023-01-30T08:37:12.968Z,24.33
2023-01-30T08:39:40.322Z,25.60
2023-01-30T08:42:07.799Z,24.67
2023-01-30T08:44:35.084Z,24.30
2023-01-30T08:47:02.377Z,21.40
2023-01-30T08:49:29.501Z,21.43
2023-01-30T08:51:57.174Z,20.67
2023-01-30T08:54:24.339Z,22.97
2023-01-30T08:56:51.569Z,23.07
2023-01-30T08:59:18.746Z,20.63
2023-01-30T09:01:46.047Z,17.43
2023-01-30T09:04:13.276Z,16.53
2023-01-30T09:06:40.466Z,21.53
2023-01-30T09:09:07.997Z,19.80
2023-01-30T09:11:35.381Z,20.93
2023-01-30T09:14:02.514Z,18.77
2023-01-30T09:16:29.839Z,19.83
2023-01-30T09:18:57.055Z,17.90
2023-01-30T09:21:24.687Z,19.03
2023-01-30T09:23:51.895Z,20.97
2023-01-30T09:26:19.331Z,17.67
2023-01-30T09:28:46.642Z,16.17
2023-01-30T09:31:13.965Z,15.80
2023-01-30T09:33:41.375Z,17.47
2023-01-30T09:36:09.296Z,18.77
2023-01-30T09:38:36.415Z,16.13
2023-01-30T09:41:12.675Z,20.53
2023-01-30T09:44:02.650Z,15.53
2023-01-30T09:46:50.421Z,19.67
2023-01-30T09:49:50.101Z,18.93
2023-01-30T09:52:23.413Z,17.53
2023-01-30T09:54:53.992Z,16.97
2023-01-30T09:57:26.056Z,15.90
2023-01-30T10:00:21.565Z,18.43
2023-01-30T10:03:09.062Z,15.50
2023-01-30T10:05:50.326Z,15.43
2023-01-30T10:08:39.025Z,16.50
2023-01-30T10:11:15.100Z,14.50
2023-01-30T10:14:20.076Z,13.27
2023-01-30T10:17:16.898Z,14.00
2023-01-30T10:20:19.943Z,18.13
2023-01-30T10:22:55.997Z,13.53
2023-01-30T10:25:44.348Z,18.57
2023-01-30T10:28:32.593Z,13.13
2023-01-30T10:31:11.528Z,13.60
2023-01-30T10:34:01.453Z,14.90
2023-01-30T10:36:53.846Z,15.97
2023-01-30T10:39:56.632Z,12.93
2023-01-30T10:42:43.879Z,12.10
2023-01-30T10:45:16.463Z,14.40
2023-01-30T10:47:55.588Z,14.33
2023-01-30T10:51:00.012Z,12.23
2023-01-30T10:53:54.161Z,13.33
2023-01-30T10:56:33.472Z,12.17
2023-01-30T10:59:11.966Z,11.17
2023-01-30T11:01:47.036Z,12.60
2023-01-30T11:04:47.356Z,12.07
2023-01-30T11:07:15.057Z,10.93
2023-01-30T11:09:50.052Z,13.20
2023-01-30T11:12:17.349Z,11.83
2023-01-30T11:15:04.392Z,10.60
2023-01-30T11:17:43.087Z,11.03
2023-01-30T11:20:20.156Z,12.90
2023-01-30T11:23:04.887Z,9.67
2023-01-30T11:25:46.957Z,8.37
2023-01-30T11:28:17.533Z,8.47
2023-01-30T11:30:50.728Z,9.23
2023-01-30T11:33:22.030Z,8.70
2023-01-30T11:35:56.486Z,8.43
2023-01-30T11:38:30.011Z,8.80
2023-01-30T11:41:13.435Z,11.03
2023-01-30T11:43:40.821Z,9.87
2023-01-30T11:46:16.267Z,12.03
2023-01-30T11:49:33.635Z,10.33
2023-01-30T11:51:47.717Z,15.03
2023-01-30T11:54:18.906Z,11.50
2023-01-30T11:56:52.734Z,10.10
2023-01-30T11:59:19.925Z,14.60
2023-01-30T12:01:47.301Z,11.13
2023-01-30T12:04:14.915Z,11.40
2023-01-30T12:06:43.801Z,10.13
2023-01-30T12:09:29.934Z,14.00
2023-01-30T12:11:57.167Z,8.33
2023-01-30T12:14:41.697Z,10.60
2023-01-30T12:17:36.476Z,10.57
2023-01-30T12:20:40.564Z,10.57
2023-01-30T12:23:32.141Z,10.33
2023-01-30T12:26:12.564Z,9.03
2023-01-30T12:29:17.592Z,10.57
2023-01-30T12:31:50.549Z,8.60
2023-01-30T12:34:18.242Z,11.07
2023-01-30T12:36:48.327Z,10.73
2023-01-30T12:39:21.460Z,8.57
2023-01-30T12:42:03.531Z,9.33
2023-01-30T12:45:12.995Z,9.20
2023-01-30T12:47:56.365Z,10.80
2023-01-30T12:53:51.310Z,12.27
2023-01-30T12:56:29.343Z,8.30
2023-01-30T12:59:14.726Z,8.47
2023-01-30T13:01:53.827Z,9.23
2023-01-30T13:04:56.429Z,8.87
2023-01-30T13:07:50.570Z,7.00
2023-01-30T13:10:50.197Z,6.70
2023-01-30T13:13:24.038Z,7.63
2023-01-30T13:15:52.393Z,7.43
2023-01-30T13:18:48.443Z,7.00
2023-01-30T13:21:55.101Z,7.57
2023-01-30T13:24:48.520Z,7.27
2023-01-30T13:27:22.005Z,8.10
2023-01-30T13:29:50.476Z,8.77
2023-01-30T13:32:42.714Z,7.57
2023-01-30T13:35:20.076Z,6.13
2023-01-30T13:37:49.238Z,5.90
2023-01-30T13:40:23.883Z,7.07
2023-01-30T13:42:59.340Z,8.23
2023-01-30T13:45:29.572Z,7.00
2023-01-30T13:48:03.834Z,10.13
2023-01-30T13:50:55.730Z,7.97
2023-01-30T13:53:34.085Z,7.20
2023-01-30T13:56:40.168Z,6.93
2023-01-30T13:59:29.343Z,6.47
2023-01-30T14:01:59.752Z,8.20
2023-01-30T14:04:43.531Z,7.73
2023-01-30T14:07:39.127Z,9.30
2023-01-30T14:10:11.299Z,8.50
2023-01-30T14:12:51.153Z,9.03
2023-01-30T14:15:21.479Z,8.30
2023-01-30T14:17:58.384Z,7.20
2023-01-30T14:20:27.822Z,8.13
2023-01-30T14:22:59.095Z,6.73
2023-01-30T14:25:26.414Z,8.70
2023-01-30T14:28:00.744Z,7.73
2023-01-30T14:30:50.579Z,8.47
2023-01-30T14:33:24.147Z,9.57
2023-01-30T14:36:03.443Z,8.73
2023-01-30T14:38:41.834Z,9.43
2023-01-30T14:41:17.511Z,9.57
2023-01-30T14:43:45.044Z,8.73
2023-01-30T14:46:18.346Z,9.60
2023-01-30T14:48:54.515Z,7.60
2023-01-30T14:51:24.739Z,8.70
2023-01-30T14:54:07.205Z,10.23
2023-01-30T14:56:42.228Z,9.37
2023-01-30T14:59:33.257Z,9.17
2023-01-30T15:02:12.607Z,11.13
2023-01-30T15:04:56.299Z,10.27
2023-01-30T15:07:32.614Z,9.83
2023-01-30T15:10:11.764Z,7.93
2023-01-30T15:13:17.764Z,8.37
2023-01-30T15:16:08.401Z,9.97
2023-01-30T15:19:13.628Z,11.20
2023-01-30T15:21:49.951Z,8.27
2023-01-30T15:24:23.382Z,7.90
2023-01-30T15:26:59.571Z,8.70
2023-01-30T15:29:53.876Z,10.27
2023-01-30T15:32:29.927Z,7.87
2023-01-30T15:34:59.591Z,8.80
2023-01-30T15:37:35.294Z,8.53
2023-01-30T15:40:21.086Z,8.80
2023-01-30T15:42:57.364Z,8.60
2023-01-30T15:45:36.830Z,8.40
2023-01-30T15:48:42.909Z,9.67
2023-01-30T15:51:14.239Z,8.23
2023-01-30T15:53:48.026Z,9.80
2023-01-30T15:56:23.220Z,8.60
2023-01-30T15:58:51.761Z,9.97
2023-01-30T16:01:22.571Z,8.20
2023-01-30T16:03:51.410Z,8.00
2023-01-30T16:06:34.306Z,9.37
2023-01-30T16:09:08.547Z,10.93
2023-01-30T16:11:42.923Z,9.80
2023-01-30T16:14:15.652Z,9.93
2023-01-30T16:16:55.036Z,8.97
2023-01-30T16:19:34.890Z,8.57
2023-01-30T16:22:15.674Z,9.97
2023-01-30T16:24:46.273Z,8.83
2023-01-30T16:27:29.814Z,8.77
2023-01-30T16:30:08.743Z,10.10
2023-01-30T16:32:38.705Z,11.17
2023-01-30T16:35:27.268Z,10.80
2023-01-30T16:37:57.932Z,9.37
2023-01-30T16:40:31.131Z,11.17
2023-01-30T16:43:04.660Z,10.93
2023-01-30T16:45:34.959Z,10.40
2023-01-30T16:48:33.564Z,8.90
2023-01-30T16:51:01.216Z,11.33
2023-01-30T16:53:31.429Z,12.37
2023-01-30T16:56:14.673Z,11.03
2023-01-30T16:58:46.615Z,10.70
2023-01-30T17:01:13.937Z,11.43
2023-01-30T17:03:44.517Z,11.60
2023-01-30T17:06:23.860Z,12.00
2023-01-30T17:08:58.973Z,10.10
2023-01-30T17:11:36.296Z,10.27
2023-01-30T17:14:31.452Z,8.10
2023-01-30T17:17:07.791Z,9.67
2023-01-30T17:19:36.324Z,11.03
2023-01-30T17:22:07.589Z,9.53
2023-01-30T17:24:36.237Z,9.97
2023-01-30T17:27:04.840Z,8.77
2023-01-30T17:29:42.549Z,8.47
2023-01-30T17:32:15.529Z,7.63
2023-01-30T17:34:43.259Z,8.73
2023-01-30T17:37:20.100Z,8.27
2023-01-30T17:39:48.342Z,7.90
2023-01-30T17:42:22.266Z,8.37
2023-01-30T17:44:50.154Z,7.57
2023-01-30T17:47:17.565Z,8.70
2023-01-30T17:49:44.835Z,7.70
2023-01-30T17:52:14.192Z,8.07
2023-01-30T17:54:41.358Z,7.77
2023-01-30T17:57:11.981Z,6.87
2023-01-30T17:59:39.758Z,8.23
2023-01-30T18:02:09.911Z,8.80
2023-01-30T18:04:37.352Z,9.60
2023-01-30T18:07:09.672Z,9.07
2023-01-30T18:09:37.899Z,8.63
2023-01-30T18:12:05.780Z,8.27
2023-01-30T18:14:33.050Z,9.67
2023-01-30T18:17:01.961Z,8.47
2023-01-30T18:19:31.602Z,9.00
2023-01-30T18:21:59.197Z,9.37
2023-01-30T18:24:26.399Z,9.00
2023-01-30T18:26:54.242Z,8.43
2023-01-30T18:29:21.659Z,8.80
2023-01-30T18:31:48.958Z,7.60
2023-01-30T18:34:16.495Z,7.97
2023-01-30T18:36:43.893Z,7.33
2023-01-30T18:39:12.395Z,7.27
2023-01-30T18:41:39.603Z,7.93
2023-01-30T18:44:07.382Z,7.00
2023-01-30T18:46:36.394Z,8.77
2023-01-30T18:49:03.549Z,7.90
2023-01-30T18:51:35.176Z,6.93
2023-01-30T18:54:04.974Z,7.83
2023-01-30T18:56:35.569Z,7.10
2023-01-30T18:59:06.273Z,7.37
2023-01-30T19:01:39.570Z,6.10
2023-01-30T19:04:09.929Z,6.47
2023-01-30T19:06:40.563Z,6.87
2023-01-30T19:09:08.895Z,7.63
2023-01-30T19:11:54.655Z,7.30
2023-01-30T19:14:22.051Z,6.77
2023-01-30T19:16:51.451Z,7.20
2023-01-30T19:19:21.520Z,6.10
2023-01-30T19:21:52.497Z,6.70
2023-01-30T19:24:21.295Z,6.80
2023-01-30T19:26:48.779Z,6.27
2023-01-30T19:29:17.122Z,7.70
2023-01-30T19:31:47.450Z,8.83
2023-01-30T19:34:16.163Z,8.50
2023-01-30T19:36:43.611Z,8.23
2023-01-30T19:39:10.954Z,8.00
2023-01-30T19:41:38.813Z,9.67
2023-01-30T19:44:08.341Z,7.53
2023-01-30T19:46:36.258Z,7.03
2023-01-30T19:49:05.627Z,7.40
2023-01-30T19:51:36.094Z,7.73
2023-01-30T19:54:11.040Z,6.93
2023-01-30T19:56:42.088Z,7.40
2023-01-30T19:59:13.293Z,7.73
2023-01-30T20:01:42.302Z,6.30
2023-01-30T20:04:09.572Z,8.67
2023-01-30T20:06:38.422Z,8.00
2023-01-30T20:09:10.203Z,8.37
2023-01-30T20:11:39.720Z,9.87
2023-01-30T20:14:07.327Z,6.23
2023-01-30T20:16:36.135Z,6.83
2023-01-30T20:19:11.919Z,5.87
2023-01-30T20:21:40.430Z,5.20
2023-01-30T20:24:14.263Z,5.43
2023-01-30T20:26:41.904Z,4.53
2023-01-30T20:29:10.510Z,3.80
2023-01-30T20:31:41.411Z,3.87
2023-01-30T20:34:12.123Z,3.53
2023-01-30T20:36:39.648Z,5.50
2023-01-30T20:39:13.142Z,5.67
2023-01-30T20:41:42.017Z,5.17
2023-01-30T20:44:13.160Z,5.57
2023-01-30T20:46:47.464Z,7.00
2023-01-30T20:49:17.812Z,7.37
2023-01-30T20:51:46.560Z,7.43
2023-01-30T20:54:15.482Z,6.77
2023-01-30T20:56:51.332Z,6.10
2023-01-30T20:59:24.281Z,7.83
2023-01-30T21:01:52.611Z,7.00
2023-01-30T21:04:21.277Z,4.57
2023-01-30T21:06:48.592Z,6.80
2023-01-30T21:09:18.893Z,5.67
2023-01-30T21:11:47.461Z,7.80
2023-01-30T21:14:16.511Z,5.70
2023-01-30T21:16:44.904Z,5.20
2023-01-30T21:19:16.636Z,5.17
2023-01-30T21:21:55.301Z,6.70
2023-01-30T21:24:29.785Z,5.00
2023-01-30T21:26:57.624Z,3.97
2023-01-30T21:29:28.522Z,3.83
2023-01-30T21:31:57.774Z,2.00
2023-01-30T21:34:25.648Z,2.77
2023-01-30T21:37:11.476Z,2.80
2023-01-30T21:39:57.693Z,1.87
2023-01-30T21:42:43.476Z,3.27
2023-01-30T21:45:10.856Z,5.20
2023-01-30T21:47:38.089Z,6.93
2023-01-30T21:50:05.933Z,5.77
2023-01-30T21:52:33.599Z,6.87
2023-01-30T21:55:00.893Z,6.40
2023-01-30T21:57:28.181Z,8.77
2023-01-30T21:59:55.671Z,5.93
2023-01-30T22:02:22.954Z,6.83
2023-01-30T22:04:50.325Z,5.27
2023-01-30T22:07:17.636Z,7.07
2023-01-30T22:09:44.834Z,6.67
2023-01-30T22:12:12.095Z,6.27
2023-01-30T22:14:39.798Z,6.60
2023-01-30T22:17:07.281Z,6.93
2023-01-30T22:19:35.863Z,7.17
2023-01-30T22:22:04.776Z,8.23
2023-01-30T22:24:32.151Z,5.50
2023-01-30T22:26:59.618Z,6.83
2023-01-30T22:29:29.333Z,7.53
2023-01-30T22:31:56.853Z,6.60
2023-01-30T22:34:24.206Z,5.50
2023-01-30T22:36:52.249Z,8.07
2023-01-30T22:39:19.486Z,3.27
2023-01-30T22:41:46.812Z,3.63
2023-01-30T22:44:14.010Z,4.00
2023-01-30T22:46:42.218Z,2.90
2023-01-30T22:49:10.216Z,2.37
2023-01-30T22:51:40.866Z,3.53
2023-01-30T22:54:15.806Z,4.97
2023-01-30T22:56:45.793Z,2.17
2023-01-30T22:59:14.137Z,5.07
2023-01-30T23:01:44.933Z,5.10
2023-01-30T23:04:30.339Z,2.20
2023-01-30T23:06:58.030Z,3.00
2023-01-30T23:09:25.205Z,4.17
2023-01-30T23:12:13.987Z,4.03
2023-01-30T23:14:43.064Z,2.13
2023-01-30T23:17:29.311Z,4.50
2023-01-30T23:19:57.409Z,1.67
2023-01-30T23:22:24.729Z,1.63
2023-01-30T23:24:52.841Z,2.90
2023-01-30T23:27:21.356Z,5.57
2023-01-30T23:29:48.779Z,2.07
2023-01-30T23:32:20.284Z,4.17
2023-01-30T23:34:48.493Z,1.73
2023-01-30T23:37:16.662Z,1.30
2023-01-30T23:39:45.172Z,3.50
2023-01-30T23:42:12.618Z,3.70
2023-01-30T23:44:40.190Z,2.93
2023-01-30T23:47:07.763Z,4.20
2023-01-30T23:49:35.333Z,6.10
2023-01-30T23:52:02.795Z,3.97
2023-01-30T23:54:30.041Z,3.27
2023-01-30T23:56:57.374Z,2.07
2023-01-30T23:59:24.593Z,2.43
